Hohenwald, Tennessee
Current Conditions -  °F | °C
As of 2:15 PM on Wednesday 26 Nov 2014 (Local Time) from KMRC Reporting Station
Broken Clouds Broken Clouds  
Wind Chill: 52°   Ceiling: 11000
Heat Index: 52°   Visibility: 10mi
Dew Point: 27°   Wind: 6mph
Humidity: 38%   Direction: 230°SW
Pressure: 30.02"   Gusts: NA
Location:  35.55°N, 87.55°W
Report Text: KMRC 262015Z AUTO 23005KT 10SM SCT090 BKN110 11/M03 A3002 RMK
Loading
Personal Weather Stations






























Interactive Weather Map New forecast layout! Learn more

10-Day Weather Forecast

Advertisements
Track Severe Weather on mobile